Time;durP1;ratioP1;P1;durP2;ratioP2;P2;SDS_P1;SDS_P2;PMS_P1;PMS_P2;Temp;Humidity;BMP_temperature;BMP_pressure;BME280_temperature;BME280_humidity;BME280_pressure;Samples;Min_cycle;Max_cycle;Signal;HPM_P1;HPM_P2
2022/03/12 00:04:13;;;;;;;9.13;6.05;;;;;;;4.39;32.19;100560.47;8324136;34;20421;-74
2022/03/12 00:09:16;;;;;;;11.73;6.47;;;;;;;4.29;32.44;100569.88;8322920;34;20439;-74
2022/03/12 00:14:21;;;;;;;10.35;5.90;;;;;;;4.32;32.49;100565.22;8323268;34;20427;-74
2022/03/12 00:19:26;;;;;;;11.07;6.07;;;;;;;4.37;32.14;100568.50;8322346;34;20529;-74
2022/03/12 00:24:29;;;;;;;8.13;5.22;;;;;;;4.26;32.24;100560.25;8323128;34;20147;-74
2022/03/12 00:29:32;;;;;;;6.65;4.53;;;;;;;4.38;31.95;100556.06;8325388;34;20175;-74
2022/03/12 00:34:36;;;;;;;8.73;5.40;;;;;;;4.14;32.38;100547.56;8264173;34;20618;-74
2022/03/12 00:39:40;;;;;;;8.70;5.45;;;;;;;4.01;32.61;100534.06;8266230;34;21070;-74
2022/03/12 00:44:43;;;;;;;8.43;5.18;;;;;;;4.27;32.21;100547.78;8281008;34;20154;-74
2022/03/12 00:49:49;;;;;;;8.27;5.10;;;;;;;4.17;31.93;100545.63;8280926;34;20133;-74
2022/03/12 00:54:52;;;;;;;10.38;5.88;;;;;;;4.10;32.17;100541.56;8269872;34;20528;-74
2022/03/12 00:59:55;;;;;;;7.72;5.60;;;;;;;3.90;32.16;100541.72;8266870;34;20518;-74
2022/03/12 01:05:00;;;;;;;10.32;5.85;;;;;;;3.98;32.09;100539.53;8265150;34;20400;-74
2022/03/12 01:10:04;;;;;;;12.45;5.57;;;;;;;3.76;32.37;100530.91;8297988;34;20196;-74
2022/03/12 01:15:09;;;;;;;9.88;5.43;;;;;;;3.85;32.03;100518.03;8355648;34;20519;-74
2022/03/12 01:20:14;;;;;;;11.13;5.70;;;;;;;3.82;32.07;100527.97;8323182;34;20483;-74
2022/03/12 01:25:18;;;;;;;8.43;5.90;;;;;;;3.75;32.15;100526.53;8321826;34;21065;-74
2022/03/12 01:30:33;;;;;;;11.43;5.43;;;;;;;3.73;32.06;100535.47;8322290;34;20189;-74
2022/03/12 01:35:37;;;;;;;5.78;4.20;;;;;;;3.77;31.84;100532.66;8319154;34;20628;-73
2022/03/12 01:40:41;;;;;;;6.45;4.85;;;;;;;3.62;31.95;100531.59;8317680;34;20449;-73
2022/03/12 01:45:44;;;;;;;8.80;5.32;;;;;;;3.53;32.03;100540.03;8317712;34;20129;-73
2022/03/12 01:50:48;;;;;;;7.20;4.75;;;;;;;3.65;31.73;100550.94;8319809;34;20147;-73
2022/03/12 01:55:51;;;;;;;8.25;4.95;;;;;;;3.59;31.84;100543.25;8297962;34;20198;-73
2022/03/12 02:00:56;;;;;;;6.28;4.70;;;;;;;3.47;31.85;100549.16;8296607;34;21563;-74
2022/03/12 02:06:01;;;;;;;6.15;4.95;;;;;;;3.75;31.60;100548.66;8315671;34;20183;-75
2022/03/12 02:11:05;;;;;;;10.00;5.70;;;;;;;3.54;31.39;100547.94;8315416;34;20525;-74
2022/03/12 02:16:10;;;;;;;10.47;4.50;;;;;;;3.41;31.51;100541.50;8314160;34;20437;-74
2022/03/12 02:21:15;;;;;;;6.35;4.90;;;;;;;3.26;31.52;100538.66;8317354;34;20930;-74
2022/03/12 02:26:19;;;;;;;8.77;4.87;;;;;;;3.36;31.89;100536.41;8319600;34;20327;-73
2022/03/12 02:31:26;;;;;;;7.87;4.77;;;;;;;3.32;31.64;100537.50;8319166;34;20428;-73
2022/03/12 02:36:29;;;;;;;7.28;4.85;;;;;;;3.31;31.74;100535.78;8319298;34;20961;-75
2022/03/12 02:41:35;;;;;;;7.93;5.20;;;;;;;3.34;31.75;100538.28;8315491;34;20479;-75
2022/03/12 02:46:41;;;;;;;7.80;4.97;;;;;;;3.31;31.74;100534.91;8314732;34;20434;-75
2022/03/12 02:51:44;;;;;;;8.67;4.93;;;;;;;3.16;32.32;100539.19;8313698;34;20517;-75
2022/03/12 02:56:50;;;;;;;6.78;4.82;;;;;;;3.26;32.15;100528.03;8312383;34;20577;-75
2022/03/12 03:01:56;;;;;;;9.50;5.20;;;;;;;2.90;31.88;100522.69;8313510;34;20419;-73
2022/03/12 03:07:00;;;;;;;7.67;4.47;;;;;;;3.04;31.89;100536.19;8315352;34;20227;-74
2022/03/12 03:12:09;;;;;;;7.33;4.43;;;;;;;3.19;31.77;100537.22;8318356;34;20148;-73
2022/03/12 03:17:12;;;;;;;9.57;5.13;;;;;;;3.12;31.71;100551.72;8322635;34;20801;-74
2022/03/12 03:22:15;;;;;;;7.37;5.20;;;;;;;3.16;31.92;100555.09;8321611;34;20351;-73
2022/03/12 03:27:19;;;;;;;8.30;4.60;;;;;;;3.35;31.43;100550.63;8314348;34;20577;-73
2022/03/12 03:32:22;;;;;;;7.37;5.00;;;;;;;3.01;31.89;100561.97;8315971;34;20417;-74
2022/03/12 03:37:25;;;;;;;7.27;5.10;;;;;;;3.21;31.58;100567.22;8326253;34;20530;-73
2022/03/12 03:42:30;;;;;;;8.20;4.97;;;;;;;3.22;31.42;100568.94;8327975;34;20190;-73
2022/03/12 03:47:33;;;;;;;7.23;4.70;;;;;;;3.13;31.63;100566.72;8323286;34;20449;-74
2022/03/12 03:52:36;;;;;;;8.00;4.63;;;;;;;3.24;31.72;100571.53;8321312;34;21145;-73
2022/03/12 03:57:40;;;;;;;7.00;4.43;;;;;;;3.22;31.69;100571.59;8321703;34;20465;-73
2022/03/12 04:02:44;;;;;;;7.37;5.10;;;;;;;3.07;31.80;100590.88;8322950;34;20516;-73
2022/03/12 04:07:47;;;;;;;6.07;4.60;;;;;;;2.99;32.17;100593.03;8320046;34;20494;-73
2022/03/12 04:12:52;;;;;;;8.07;4.70;;;;;;;2.95;32.24;100591.47;8318937;34;20443;-73
2022/03/12 04:17:57;;;;;;;14.80;4.93;;;;;;;2.93;32.38;100602.13;8318575;34;20153;-73
2022/03/12 04:23:02;;;;;;;7.93;4.70;;;;;;;2.97;32.33;100594.91;8318513;34;20578;-73
2022/03/12 04:28:09;;;;;;;8.50;4.67;;;;;;;2.68;32.28;100601.53;8318705;34;21043;-74
2022/03/12 04:33:13;;;;;;;9.90;5.20;;;;;;;2.67;32.80;100605.97;8319582;34;20140;-73
2022/03/12 04:38:17;;;;;;;8.93;5.20;;;;;;;2.75;32.82;100611.81;8324405;34;20435;-73
2022/03/12 04:43:22;;;;;;;9.13;5.30;;;;;;;2.66;32.85;100608.69;8324187;34;20286;-73
2022/03/12 04:48:25;;;;;;;8.83;4.90;;;;;;;2.74;33.29;100615.41;8316756;34;20278;-73
2022/03/12 04:53:29;;;;;;;7.63;4.40;;;;;;;2.63;33.50;100617.66;8292024;34;20545;-74
2022/03/12 04:58:33;;;;;;;7.53;4.20;;;;;;;2.58;33.45;100623.16;8316241;34;20594;-73
2022/03/12 05:03:38;;;;;;;7.60;4.70;;;;;;;2.67;33.48;100621.91;8315928;34;21218;-74
2022/03/12 05:08:41;;;;;;;7.60;5.10;;;;;;;2.69;33.46;100630.66;8311358;34;20151;-75
2022/03/12 05:13:46;;;;;;;9.83;5.30;;;;;;;2.68;33.58;100633.38;8308801;34;20151;-74
2022/03/12 05:18:49;;;;;;;7.17;4.90;;;;;;;2.51;33.82;100636.72;8307289;34;20457;-74
2022/03/12 05:23:52;;;;;;;8.33;4.97;;;;;;;2.61;33.76;100643.41;8307445;34;20934;-73
2022/03/12 05:28:57;;;;;;;9.27;5.00;;;;;;;2.75;33.93;100645.44;8308403;34;20524;-73
2022/03/12 05:34:00;;;;;;;7.23;5.00;;;;;;;2.58;33.86;100646.19;8311477;34;21472;-73
2022/03/12 05:39:04;;;;;;;7.30;4.90;;;;;;;2.58;33.99;100660.31;8318071;34;20691;-73
2022/03/12 05:44:08;;;;;;;8.47;5.10;;;;;;;2.73;33.92;100664.06;8321817;34;20218;-73
2022/03/12 05:49:13;;;;;;;7.37;4.97;;;;;;;2.69;33.53;100657.19;8319651;34;20765;-72
2022/03/12 05:54:16;;;;;;;7.80;5.20;;;;;;;2.65;33.92;100663.53;8330989;34;20187;-75
2022/03/12 05:59:20;;;;;;;6.90;4.77;;;;;;;2.62;33.64;100668.97;8331818;34;20887;-73
2022/03/12 06:04:25;;;;;;;7.93;4.75;;;;;;;2.69;33.86;100666.91;8306464;34;20468;-73
2022/03/12 06:09:28;;;;;;;10.48;4.90;;;;;;;2.78;34.02;100672.69;8323733;34;20421;-73
2022/03/12 06:14:40;;;;;;;6.80;4.50;;;;;;;2.86;34.03;100666.19;8321309;34;20417;-73
2022/03/12 06:19:43;;;;;;;7.50;4.37;;;;;;;2.72;34.03;100672.09;8316939;34;20557;-73
2022/03/12 06:24:46;;;;;;;7.22;4.65;;;;;;;2.90;34.03;100676.59;8315911;34;21004;-73
2022/03/12 06:29:51;;;;;;;6.72;4.25;;;;;;;3.07;33.79;100675.81;8314299;34;20428;-73
2022/03/12 06:34:54;;;;;;;7.67;4.87;;;;;;;3.18;34.09;100680.66;8318208;34;20431;-73
2022/03/12 06:39:58;;;;;;;13.98;5.45;;;;;;;3.35;33.87;100679.91;8315195;34;20424;-73
2022/03/12 06:45:02;;;;;;;8.18;5.25;;;;;;;3.48;33.64;100681.03;8312682;34;20190;-73
2022/03/12 06:50:10;;;;;;;6.82;5.20;;;;;;;3.52;33.41;100684.41;8311598;34;20453;-74
2022/03/12 06:55:13;;;;;;;6.63;4.57;;;;;;;3.64;33.86;100690.00;8296563;34;20538;-74
2022/03/12 07:00:22;;;;;;;6.33;4.93;;;;;;;3.58;34.09;100689.44;8311526;34;20676;-73
2022/03/12 07:05:26;;;;;;;8.57;4.57;;;;;;;3.86;33.93;100703.13;8314776;34;20151;-74
2022/03/12 07:10:29;;;;;;;8.97;5.60;;;;;;;3.89;34.02;100702.13;8315591;34;20254;-74
2022/03/12 07:15:34;;;;;;;13.88;5.80;;;;;;;4.28;33.93;100709.06;8310102;34;20437;-74
2022/03/12 07:20:37;;;;;;;9.73;5.78;;;;;;;4.56;33.63;100711.22;8311484;34;20191;-73
2022/03/12 07:25:40;;;;;;;9.43;5.47;;;;;;;4.73;33.37;100711.22;8314877;34;20411;-73
2022/03/12 07:30:45;;;;;;;6.53;4.85;;;;;;;5.09;33.88;100714.75;8280372;34;20442;-73
2022/03/12 07:35:48;;;;;;;10.52;5.13;;;;;;;5.49;32.95;100709.00;8315293;34;20225;-74
2022/03/12 07:40:52;;;;;;;6.50;4.97;;;;;;;5.89;32.33;100713.91;8322691;34;20201;-74
2022/03/12 07:45:57;;;;;;;10.15;5.20;;;;;;;5.93;32.48;100708.31;8306754;34;20199;-74
2022/03/12 07:51:01;;;;;;;9.38;5.78;;;;;;;6.02;32.23;100706.09;8305322;34;20435;-74
2022/03/12 07:56:05;;;;;;;8.45;5.35;;;;;;;5.94;32.48;100710.03;8216141;34;20504;-74
2022/03/12 08:01:10;;;;;;;10.45;6.05;;;;;;;6.50;31.98;100706.84;8209907;34;20893;-74
2022/03/12 08:06:14;;;;;;;9.90;5.85;;;;;;;6.43;31.98;100698.34;8271336;34;20162;-73
2022/03/12 08:11:28;;;;;;;9.13;4.97;;;;;;;6.73;32.19;100711.69;8292143;34;20148;-73
2022/03/12 08:16:34;;;;;;;10.25;6.13;;;;;;;7.03;31.76;100726.84;8213072;34;20441;-74
2022/03/12 08:21:38;;;;;;;8.30;6.35;;;;;;;7.55;31.89;100725.44;8206353;34;20988;-74
2022/03/12 08:26:48;;;;;;;8.75;6.03;;;;;;;8.11;31.74;100726.28;8190849;34;20997;-73
2022/03/12 08:31:53;;;;;;;7.93;5.70;;;;;;;8.53;31.39;100730.66;8223652;34;20517;-74
2022/03/12 08:36:57;;;;;;;9.90;6.03;;;;;;;8.33;31.47;100726.59;8284736;34;20179;-74
2022/03/12 08:42:00;;;;;;;9.73;6.13;;;;;;;8.44;31.85;100727.69;8323982;34;20499;-74
2022/03/12 08:47:06;;;;;;;8.68;5.90;;;;;;;8.27;31.69;100727.00;8317246;34;20629;-73
2022/03/12 08:52:09;;;;;;;9.23;5.18;;;;;;;8.77;30.93;100729.94;8284573;34;20610;-73
2022/03/12 08:57:13;;;;;;;9.90;6.18;;;;;;;8.87;30.66;100731.06;8282480;34;20464;-73
2022/03/12 09:02:17;;;;;;;9.07;6.07;;;;;;;8.78;30.96;100729.00;8275654;34;20214;-73
2022/03/12 09:07:23;;;;;;;8.57;5.82;;;;;;;9.64;31.48;100729.22;8271138;34;20926;-73
2022/03/12 09:12:26;;;;;;;9.13;5.63;;;;;;;9.96;30.61;100727.91;8267078;34;20158;-73
2022/03/12 09:17:30;;;;;;;8.25;6.30;;;;;;;10.22;30.94;100712.53;8279983;34;20263;-73
2022/03/12 09:22:34;;;;;;;9.27;5.88;;;;;;;10.29;30.47;100705.75;8291972;34;20479;-72
2022/03/12 09:27:37;;;;;;;9.65;6.35;;;;;;;10.19;30.10;100718.16;8283108;34;20450;-74
2022/03/12 09:32:42;;;;;;;8.68;6.15;;;;;;;10.52;30.59;100710.25;8273009;34;20448;-73
2022/03/12 09:37:45;;;;;;;7.82;5.95;;;;;;;10.96;30.71;100705.13;8236590;34;20452;-72
2022/03/12 09:42:49;;;;;;;10.48;7.00;;;;;;;11.15;30.17;100702.75;8218981;34;20142;-73
2022/03/12 09:47:54;;;;;;;10.32;6.82;;;;;;;11.26;29.41;100701.91;8223860;34;20915;-73
2022/03/12 09:52:57;;;;;;;9.15;6.45;;;;;;;11.39;29.29;100721.47;8225777;34;20198;-73
2022/03/12 09:58:00;;;;;;;9.80;7.10;;;;;;;11.49;29.26;100717.06;8226474;34;20311;-73
2022/03/12 10:03:05;;;;;;;9.85;7.22;;;;;;;11.79;28.73;100714.72;8186929;34;20213;-72
2022/03/12 10:08:09;;;;;;;9.48;6.78;;;;;;;11.82;29.61;100719.84;8254397;34;20533;-73
2022/03/12 10:13:12;;;;;;;11.30;7.18;;;;;;;12.14;29.79;100722.59;8299163;34;20314;-72
2022/03/12 10:18:16;;;;;;;11.90;6.40;;;;;;;12.66;28.45;100720.13;8289063;34;20222;-72
2022/03/12 10:23:21;;;;;;;12.60;6.55;;;;;;;12.66;29.04;100712.91;8315814;34;20547;-73
2022/03/12 10:28:25;;;;;;;10.35;6.80;;;;;;;12.65;29.04;100704.97;8319223;34;20432;-71
2022/03/12 10:33:29;;;;;;;11.90;7.47;;;;;;;12.41;29.14;100702.50;8287326;34;20234;-72
2022/03/12 10:38:39;;;;;;;13.93;7.32;;;;;;;12.81;29.13;100698.13;8282093;34;20487;-73
2022/03/12 10:43:48;;;;;;;11.23;7.45;;;;;;;13.19;27.71;100706.56;8284094;34;20579;-73
2022/03/12 10:48:57;;;;;;;10.30;7.32;;;;;;;13.37;28.07;100710.41;8281174;34;20397;-72
2022/03/12 10:54:08;;;;;;;10.68;7.20;;;;;;;13.21;28.78;100708.16;8289212;34;20436;-72
2022/03/12 10:59:14;;;;;;;10.40;6.85;;;;;;;13.65;28.61;100708.81;8299201;34;20156;-70
2022/03/12 11:04:22;;;;;;;12.40;7.45;;;;;;;13.66;28.07;100709.69;8300308;34;20953;-72
2022/03/12 11:09:34;;;;;;;11.82;7.68;;;;;;;14.37;28.01;100714.94;8287735;34;21112;-73
2022/03/12 11:14:37;;;;;;;11.23;7.25;;;;;;;14.59;28.41;100713.88;8289860;34;20208;-73
2022/03/12 11:19:45;;;;;;;11.68;7.20;;;;;;;14.73;27.44;100715.28;8286582;34;20601;-72
2022/03/12 11:24:51;;;;;;;10.07;7.57;;;;;;;14.63;27.82;100726.09;8289034;34;20388;-71
2022/03/12 11:30:01;;;;;;;10.63;7.90;;;;;;;14.95;28.53;100711.41;8288375;34;20431;-72
2022/03/12 11:35:11;;;;;;;12.60;7.43;;;;;;;16.32;26.77;100709.88;8300020;34;20226;-72
2022/03/12 11:40:19;;;;;;;15.05;8.27;;;;;;;17.19;25.81;100709.06;8297316;34;20645;-73
2022/03/12 11:45:22;;;;;;;14.68;7.90;;;;;;;16.96;26.54;100700.56;8290448;34;20645;-72
2022/03/12 11:50:28;;;;;;;11.40;8.50;;;;;;;17.22;26.54;100686.19;8295425;34;22446;-72
2022/03/12 11:55:33;;;;;;;11.55;8.27;;;;;;;17.66;27.11;100681.50;8290082;34;20511;-72
2022/03/12 12:00:36;;;;;;;11.57;7.88;;;;;;;17.68;26.68;100681.31;8216988;34;20137;-72
2022/03/12 12:05:43;;;;;;;12.35;8.65;;;;;;;17.50;27.46;100675.13;8245714;34;20896;-71
2022/03/12 12:10:47;;;;;;;10.88;7.70;;;;;;;18.16;26.66;100671.66;8278641;34;20443;-72
2022/03/12 12:15:50;;;;;;;12.18;8.63;;;;;;;18.51;26.21;100666.91;8281565;34;20152;-74
2022/03/12 12:20:55;;;;;;;10.07;7.90;;;;;;;18.30;26.90;100671.00;8281464;34;20435;-74
2022/03/12 12:26:08;;;;;;;13.40;8.88;;;;;;;18.90;25.98;100672.56;8282674;34;20148;-74
2022/03/12 12:31:18;;;;;;;11.90;8.07;;;;;;;19.33;26.20;100667.69;8282039;34;20435;-74
2022/03/12 12:36:23;;;;;;;10.15;7.38;;;;;;;18.96;27.17;100652.81;8271335;34;20443;-74
2022/03/12 12:41:52;;;;;;;11.75;7.72;;;;;;;18.89;27.55;100654.53;8268885;34;20187;-72
2022/03/12 12:46:55;;;;;;;8.52;6.90;;;;;;;18.69;27.29;100643.13;8278398;34;20183;-74
2022/03/12 12:52:00;;;;;;;11.20;8.02;;;;;;;18.63;26.85;100645.69;8265863;34;21136;-72
2022/03/12 12:57:04;;;;;;;12.85;8.52;;;;;;;18.38;27.77;100642.13;8266565;34;20435;-74
2022/03/12 13:02:08;;;;;;;11.48;8.05;;;;;;;18.94;26.85;100638.53;8266465;34;20476;-72
2022/03/12 13:07:27;;;;;;;11.32;7.30;;;;;;;17.93;27.95;100638.78;8245669;34;21014;-72
2022/03/12 13:12:42;;;;;;;11.82;7.80;;;;;;;17.66;28.68;100645.31;8224114;34;20149;-72
2022/03/12 13:17:46;;;;;;;12.30;7.95;;;;;;;17.79;28.82;100642.97;8230339;34;20153;-73
2022/03/12 13:22:59;;;;;;;12.68;8.20;;;;;;;18.13;28.73;100639.38;8232050;34;20247;-74
2022/03/12 13:28:04;;;;;;;11.25;7.97;;;;;;;19.19;27.23;100635.75;8228631;34;20160;-73
2022/03/12 13:33:11;;;;;;;10.07;7.18;;;;;;;20.80;26.00;100622.34;8222866;34;21256;-74
2022/03/12 13:38:16;;;;;;;10.75;8.20;;;;;;;21.60;25.36;100618.03;8232502;34;20151;-73
2022/03/12 13:43:20;;;;;;;12.80;8.77;;;;;;;22.01;24.57;100614.75;8234751;34;20528;-72
2022/03/12 13:48:23;;;;;;;11.68;8.98;;;;;;;22.15;24.20;100611.09;8282932;34;21256;-73
2022/03/12 13:53:30;;;;;;;13.00;9.45;;;;;;;20.93;24.48;100608.91;8287235;34;20172;-73
2022/03/12 13:58:42;;;;;;;14.13;9.75;;;;;;;20.86;25.30;100607.94;8230863;34;20430;-73
2022/03/12 14:03:46;;;;;;;14.13;9.50;;;;;;;19.62;25.83;100609.06;8216753;34;20476;-74
2022/03/12 14:08:51;;;;;;;17.27;10.57;;;;;;;20.61;25.60;100595.56;8206279;34;20239;-74
2022/03/12 14:13:59;;;;;;;14.85;10.27;;;;;;;20.61;24.74;100604.59;8203475;34;20516;-73
2022/03/12 14:19:03;;;;;;;14.88;9.10;;;;;;;20.85;25.16;100594.50;8199508;34;20236;-73
2022/03/12 14:24:17;;;;;;;17.25;10.38;;;;;;;21.39;24.98;100597.81;8199608;34;20577;-74
2022/03/12 14:29:23;;;;;;;15.85;10.55;;;;;;;20.60;26.06;100594.72;8277154;34;20198;-73
2022/03/12 14:34:30;;;;;;;15.85;9.93;;;;;;;20.17;26.10;100588.94;8283471;34;20172;-74
2022/03/12 14:39:37;;;;;;;13.45;9.02;;;;;;;20.70;26.59;100586.25;8280227;34;20459;-73
2022/03/12 14:44:42;;;;;;;13.00;9.50;;;;;;;20.63;26.58;100586.19;8293098;34;20322;-72
2022/03/12 14:49:47;;;;;;;12.70;8.98;;;;;;;19.58;27.86;100583.19;8289374;34;20942;-73
2022/03/12 14:54:53;;;;;;;17.83;9.50;;;;;;;19.45;28.09;100581.00;8291862;34;20148;-73
2022/03/12 14:59:57;;;;;;;16.80;10.43;;;;;;;18.83;28.90;100575.44;8282303;34;22038;-72
2022/03/12 15:05:04;;;;;;;12.98;9.38;;;;;;;18.72;28.87;100576.63;8297570;34;20438;-73
2022/03/12 15:10:16;;;;;;;13.63;9.73;;;;;;;17.37;30.91;100583.28;8257000;34;20531;-73
2022/03/12 15:15:22;;;;;;;15.00;9.25;;;;;;;16.46;32.18;100568.34;8227380;34;20272;-73
2022/03/12 15:20:28;;;;;;;14.20;9.23;;;;;;;16.45;31.94;100574.75;8209504;34;20159;-73
2022/03/12 15:25:35;;;;;;;17.35;9.88;;;;;;;15.84;32.33;100587.22;8210371;34;20149;-73
2022/03/12 15:30:41;;;;;;;15.70;9.55;;;;;;;15.24;33.59;100584.13;8209775;34;20564;-72
2022/03/12 15:35:47;;;;;;;14.35;9.13;;;;;;;14.88;34.53;100585.88;8212083;34;20451;-74
2022/03/12 15:40:51;;;;;;;14.13;9.40;;;;;;;14.49;35.53;100589.50;8216917;34;20213;-73
2022/03/12 15:45:54;;;;;;;14.07;9.75;;;;;;;14.45;36.01;100587.25;8239189;34;20472;-74
2022/03/12 15:50:58;;;;;;;14.50;9.25;;;;;;;14.05;36.40;100586.38;8253004;34;20462;-73
2022/03/12 15:56:03;;;;;;;19.20;10.60;;;;;;;14.24;36.00;100582.84;8175107;35;21320;-74
2022/03/12 16:01:06;;;;;;;17.10;10.50;;;;;;;13.93;36.46;100592.91;8154517;35;20462;-74
2022/03/12 16:06:10;;;;;;;15.68;9.85;;;;;;;13.71;36.09;100592.19;8177972;35;20199;-72
2022/03/12 16:11:14;;;;;;;17.50;10.50;;;;;;;13.73;36.01;100589.34;8182461;35;20193;-73
2022/03/12 16:16:17;;;;;;;12.93;8.80;;;;;;;13.66;36.16;100590.91;8182275;35;22088;-73
2022/03/12 16:21:20;;;;;;;15.68;9.48;;;;;;;13.39;36.97;100587.00;8183595;35;20877;-73
2022/03/12 16:26:26;;;;;;;15.00;9.48;;;;;;;13.12;37.96;100597.53;8177914;35;20220;-73
2022/03/12 16:31:29;;;;;;;14.82;9.60;;;;;;;13.00;38.45;100594.94;8176341;35;20447;-72
2022/03/12 16:36:34;;;;;;;14.38;9.60;;;;;;;12.71;39.62;100584.00;8231578;34;20438;-72
2022/03/12 16:41:39;;;;;;;16.08;9.98;;;;;;;12.43;40.46;100588.22;8220495;34;20140;-73
2022/03/12 16:46:43;;;;;;;13.13;8.80;;;;;;;12.11;41.27;100580.16;8219614;34;20149;-73
2022/03/12 16:51:46;;;;;;;13.10;8.93;;;;;;;11.97;41.65;100575.06;8221929;34;20451;-73
2022/03/12 16:56:50;;;;;;;14.75;9.85;;;;;;;11.81;42.07;100580.88;8212720;34;20145;-73
2022/03/12 17:01:53;;;;;;;14.73;9.82;;;;;;;11.65;42.44;100587.53;8211826;34;20597;-74
2022/03/12 17:06:57;;;;;;;13.15;9.75;;;;;;;11.50;42.95;100592.34;8211995;34;20496;-73
2022/03/12 17:12:01;;;;;;;16.10;10.05;;;;;;;11.35;43.46;100587.34;8213585;34;20266;-73
2022/03/12 17:17:05;;;;;;;15.75;9.90;;;;;;;11.21;43.72;100596.53;8210469;34;20578;-72
2022/03/12 17:22:08;;;;;;;17.95;12.45;;;;;;;11.00;44.19;100593.72;8245411;34;20499;-73
2022/03/12 17:27:13;;;;;;;18.13;12.30;;;;;;;10.83;44.45;100592.34;8285993;34;21083;-73
2022/03/12 17:32:16;;;;;;;18.35;10.85;;;;;;;10.76;44.32;100593.81;8294491;34;20205;-73
2022/03/12 17:37:20;;;;;;;19.75;11.65;;;;;;;10.68;44.32;100590.88;8291607;34;20434;-73
2022/03/12 17:42:25;;;;;;;18.35;11.60;;;;;;;10.51;44.76;100586.81;8291869;34;20155;-73
2022/03/12 17:47:29;;;;;;;19.73;11.98;;;;;;;10.54;44.27;100579.38;8299665;34;20187;-74
2022/03/12 17:52:33;;;;;;;18.00;9.73;;;;;;;10.55;44.08;100583.75;8315751;34;20424;-74
2022/03/12 17:57:40;;;;;;;15.07;9.68;;;;;;;10.43;43.97;100584.72;8299605;34;20494;-74
2022/03/12 18:02:44;;;;;;;15.00;9.73;;;;;;;10.39;44.10;100597.53;8320450;34;20938;-74
2022/03/12 18:07:47;;;;;;;18.60;10.23;;;;;;;10.32;44.27;100598.13;8307797;34;20188;-75
2022/03/12 18:12:53;;;;;;;17.33;12.10;;;;;;;10.31;44.45;100588.34;8292681;34;20524;-75
2022/03/12 18:17:56;;;;;;;21.60;15.18;;;;;;;10.16;44.53;100585.84;8269157;34;20479;-75
2022/03/12 18:22:59;;;;;;;19.33;12.13;;;;;;;10.08;44.67;100579.34;8265328;34;20167;-74
2022/03/12 18:28:05;;;;;;;17.30;10.70;;;;;;;9.88;45.35;100580.88;8264495;34;20489;-74
2022/03/12 18:33:09;;;;;;;22.42;13.38;;;;;;;9.74;45.51;100576.50;8267197;34;20148;-75
2022/03/12 18:38:12;;;;;;;21.23;13.45;;;;;;;9.69;45.43;100582.22;8273631;34;20206;-75
2022/03/12 18:43:17;;;;;;;26.23;15.65;;;;;;;9.61;45.16;100573.03;8278922;34;20508;-75
2022/03/12 18:48:22;;;;;;;24.92;15.35;;;;;;;9.57;44.80;100576.88;8288332;34;20445;-75
2022/03/12 18:53:26;;;;;;;26.27;16.50;;;;;;;9.42;44.33;100587.78;8313029;34;20445;-75
2022/03/12 18:58:33;;;;;;;19.60;13.15;;;;;;;9.24;44.02;100587.31;8316139;34;20566;-75
2022/03/12 19:03:36;;;;;;;20.20;12.65;;;;;;;9.29;43.25;100582.44;8318138;34;20250;-74
2022/03/12 19:08:39;;;;;;;18.73;11.87;;;;;;;9.20;43.08;100590.31;8315555;34;20469;-74
2022/03/12 19:13:46;;;;;;;21.08;12.77;;;;;;;9.29;43.18;100587.78;8322139;34;20452;-74
2022/03/12 19:18:50;;;;;;;21.63;12.90;;;;;;;9.23;43.00;100595.44;8321031;34;20931;-75
2022/03/12 19:23:53;;;;;;;22.13;12.57;;;;;;;9.10;43.07;100591.91;8327273;34;20243;-74
2022/03/12 19:28:58;;;;;;;25.25;13.13;;;;;;;8.78;42.78;100595.94;8314897;34;20428;-74
2022/03/12 19:34:01;;;;;;;17.60;12.38;;;;;;;8.81;42.35;100602.91;8332283;34;20237;-74
2022/03/12 19:39:05;;;;;;;19.88;13.13;;;;;;;8.71;41.83;100608.03;8334073;34;20622;-73
2022/03/12 19:44:10;;;;;;;21.33;12.15;;;;;;;8.85;41.79;100612.41;8337584;34;21065;-74
2022/03/12 19:49:13;;;;;;;16.93;10.67;;;;;;;8.71;41.80;100607.19;8346144;34;20447;-74
2022/03/12 19:54:16;;;;;;;18.50;11.65;;;;;;;8.48;42.01;100598.91;8372310;34;20439;-73
2022/03/12 19:59:21;;;;;;;15.68;10.55;;;;;;;8.36;42.27;100608.63;8369074;34;20558;-74
2022/03/12 20:04:24;;;;;;;17.95;11.70;;;;;;;8.31;42.27;100613.44;8346668;34;20183;-74
2022/03/12 20:09:27;;;;;;;18.35;12.65;;;;;;;8.26;42.13;100602.19;8328430;34;20195;-74
2022/03/12 20:14:31;;;;;;;16.98;12.00;;;;;;;8.07;42.33;100604.38;8325461;34;20660;-73
2022/03/12 20:19:34;;;;;;;19.52;11.95;;;;;;;7.98;42.60;100599.63;8330848;34;20469;-73
2022/03/12 20:24:38;;;;;;;16.95;11.23;;;;;;;7.88;41.92;100599.41;8339740;34;20554;-73
2022/03/12 20:29:44;;;;;;;18.50;11.15;;;;;;;8.02;41.46;100601.16;8334679;34;20195;-72
2022/03/12 20:34:48;;;;;;;14.88;9.98;;;;;;;7.89;41.54;100593.06;8332863;34;20155;-74
2022/03/12 20:39:51;;;;;;;17.17;10.18;;;;;;;7.93;41.25;100591.94;8331753;34;20554;-74
2022/03/12 20:44:56;;;;;;;19.10;10.25;;;;;;;7.83;41.11;100586.31;8333575;34;20463;-74
2022/03/12 20:49:59;;;;;;;17.70;10.50;;;;;;;7.75;41.27;100572.59;8331286;34;20651;-74
2022/03/12 20:55:04;;;;;;;16.50;10.38;;;;;;;7.86;41.02;100577.25;8322045;34;20996;-74
2022/03/12 21:00:11;;;;;;;18.08;11.23;;;;;;;7.80;40.87;100575.84;8321756;34;20191;-74
2022/03/12 21:05:20;;;;;;;16.83;9.70;;;;;;;7.75;40.61;100580.63;8322083;34;20521;-74
2022/03/12 21:10:24;;;;;;;17.80;10.98;;;;;;;7.69;40.07;100560.50;8319463;34;20498;-75
2022/03/12 21:15:29;;;;;;;16.25;9.82;;;;;;;7.71;39.86;100563.94;8320200;34;20511;-73
2022/03/12 21:20:35;;;;;;;18.00;9.32;;;;;;;7.66;39.59;100552.69;8319287;34;20569;-73
2022/03/12 21:25:40;;;;;;;12.93;8.73;;;;;;;7.57;39.08;100550.63;8318653;34;22574;-73
2022/03/12 21:30:45;;;;;;;15.00;10.30;;;;;;;7.46;39.52;100543.31;8320094;34;20482;-75
2022/03/12 21:35:50;;;;;;;14.88;8.77;;;;;;;7.47;39.19;100553.03;8316249;34;20259;-75
2022/03/12 21:40:53;;;;;;;17.13;10.10;;;;;;;7.44;39.17;100550.56;8316207;34;20187;-75
2022/03/12 21:45:57;;;;;;;13.40;9.27;;;;;;;7.36;39.10;100555.56;8320472;34;20158;-75
2022/03/12 21:51:00;;;;;;;15.07;9.50;;;;;;;7.20;38.96;100542.31;8301128;34;20619;-74
2022/03/12 21:56:05;;;;;;;12.70;9.20;;;;;;;7.22;38.60;100547.56;8211711;34;20481;-74
2022/03/12 22:01:12;;;;;;;16.25;9.68;;;;;;;7.21;38.45;100545.84;8232065;34;20188;-73
2022/03/12 22:06:16;;;;;;;16.45;9.77;;;;;;;7.13;38.54;100550.81;8236353;34;20203;-73
2022/03/12 22:11:19;;;;;;;18.27;9.50;;;;;;;7.02;38.46;100548.81;8233732;34;20883;-75
2022/03/12 22:16:23;;;;;;;15.45;9.77;;;;;;;6.87;39.05;100537.31;8238019;34;20227;-73
2022/03/12 22:21:26;;;;;;;16.30;8.85;;;;;;;6.74;39.02;100536.34;8283713;34;20431;-75
2022/03/12 22:26:29;;;;;;;14.70;8.93;;;;;;;6.61;38.97;100529.09;8285646;34;21077;-75
2022/03/12 22:31:34;;;;;;;14.57;9.30;;;;;;;6.66;38.69;100531.47;8291330;34;21972;-74
2022/03/12 22:36:37;;;;;;;16.92;9.65;;;;;;;6.80;38.24;100536.81;8289341;34;20426;-74
2022/03/12 22:41:40;;;;;;;17.00;9.15;;;;;;;6.65;38.14;100542.25;8287712;34;20240;-74
2022/03/12 22:46:45;;;;;;;13.43;9.20;;;;;;;6.64;38.05;100536.06;8284922;34;20434;-74
2022/03/12 22:51:51;;;;;;;14.18;9.38;;;;;;;6.50;38.04;100530.69;8260547;34;20436;-73
2022/03/12 22:56:54;;;;;;;15.25;9.45;;;;;;;6.51;38.20;100527.09;8283968;34;21550;-74
2022/03/12 23:02:03;;;;;;;14.45;8.63;;;;;;;6.57;38.23;100530.22;8286549;34;20945;-73
2022/03/12 23:12:26;;;;;;;14.68;9.48;;;;;;;6.38;38.39;100511.81;8233933;34;20445;-74
2022/03/12 23:17:36;;;;;;;16.50;9.15;;;;;;;6.17;38.40;100507.78;8313608;34;20436;-74
2022/03/12 23:22:42;;;;;;;14.95;9.70;;;;;;;6.27;38.27;100508.97;8280403;34;20573;-74
2022/03/12 23:27:46;;;;;;;12.95;9.25;;;;;;;6.25;38.42;100510.84;8187099;34;20506;-74
2022/03/12 23:32:51;;;;;;;17.65;9.73;;;;;;;6.15;38.36;100505.25;8185945;35;20412;-74
2022/03/12 23:37:54;;;;;;;18.05;9.88;;;;;;;6.08;38.38;100517.22;8214948;34;20466;-75
2022/03/12 23:42:59;;;;;;;13.70;8.50;;;;;;;6.18;38.61;100517.53;8209311;34;20439;-75